createdAt,value
2022-10-10T00:01:23.361Z,27.40
2022-10-10T00:04:25.230Z,33.00
2022-10-10T00:10:29.203Z,27.70
2022-10-10T00:13:31.833Z,25.30
2022-10-10T00:16:34.067Z,27.80
2022-10-10T00:19:35.972Z,30.70
2022-10-10T00:25:39.462Z,31.50
2022-10-10T00:31:43.307Z,31.60
2022-10-10T00:37:46.741Z,31.50
2022-10-10T00:44:21.012Z,49.10
2022-10-10T00:47:22.778Z,52.50
2022-10-10T00:56:35.871Z,61.80
2022-10-10T00:59:39.771Z,52.40
2022-10-10T01:02:41.622Z,78.60
2022-10-10T01:05:44.747Z,67.90
2022-10-10T01:08:46.592Z,83.70
2022-10-10T01:12:42.465Z,94.10
2022-10-10T01:15:57.033Z,111.60
2022-10-10T01:19:21.890Z,95.00
2022-10-10T01:22:41.609Z,45.40
2022-10-10T01:25:46.562Z,88.80
2022-10-10T01:28:55.015Z,74.40
2022-10-10T01:32:05.259Z,100.70
2022-10-10T01:35:32.794Z,42.50
2022-10-10T01:38:37.055Z,51.20
2022-10-10T01:41:43.520Z,57.20
2022-10-10T01:44:46.732Z,49.50
2022-10-10T01:47:49.620Z,47.50
2022-10-10T01:51:03.775Z,53.70
2022-10-10T01:54:11.535Z,63.60
2022-10-10T01:57:27.361Z,44.40
2022-10-10T02:00:32.422Z,90.50
2022-10-10T02:03:40.151Z,64.60
2022-10-10T02:06:50.843Z,42.20
2022-10-10T02:09:54.371Z,38.30
2022-10-10T02:12:58.016Z,38.00
2022-10-10T02:16:01.113Z,40.90
2022-10-10T02:19:07.067Z,39.00
2022-10-10T02:22:09.798Z,34.50
2022-10-10T02:25:12.529Z,32.80
2022-10-10T02:28:36.749Z,33.70
2022-10-10T02:31:50.765Z,39.80
2022-10-10T02:34:56.673Z,59.20
2022-10-10T02:37:59.720Z,46.40
2022-10-10T02:41:04.269Z,60.00
2022-10-10T02:44:06.540Z,80.90
2022-10-10T02:47:09.098Z,66.30
2022-10-10T02:50:11.208Z,66.90
2022-10-10T02:53:13.165Z,77.10
2022-10-10T02:56:15.077Z,54.40
2022-10-10T02:59:16.895Z,58.10
2022-10-10T03:05:20.456Z,58.50
2022-10-10T03:11:24.789Z,41.20
2022-10-10T03:17:28.168Z,43.00
2022-10-10T03:26:34.551Z,46.20
2022-10-10T03:29:36.564Z,39.80
2022-10-10T03:32:38.301Z,39.40
2022-10-10T03:35:40.184Z,36.80
2022-10-10T03:38:42.226Z,51.40
2022-10-10T03:41:44.187Z,35.40
2022-10-10T03:44:45.995Z,49.50
2022-10-10T03:50:49.607Z,66.00
2022-10-10T03:56:53.238Z,46.70
2022-10-10T04:02:56.741Z,67.10
2022-10-10T04:09:00.655Z,52.90
2022-10-10T04:15:04.531Z,63.10
2022-10-10T04:18:06.387Z,46.60
2022-10-10T04:21:08.429Z,47.90
2022-10-10T04:24:10.512Z,37.00
2022-10-10T04:27:12.891Z,33.60
2022-10-10T04:30:15.124Z,34.00
2022-10-10T04:33:17.140Z,36.70
2022-10-10T04:36:19.264Z,31.60
2022-10-10T04:39:21.759Z,32.20
2022-10-10T04:42:23.578Z,30.60
2022-10-10T04:48:29.827Z,30.90
2022-10-10T04:54:34.276Z,31.50
2022-10-10T05:00:41.173Z,31.40
2022-10-10T05:03:43.154Z,30.90
2022-10-10T05:06:44.945Z,28.90
2022-10-10T05:12:48.888Z,32.20
2022-10-10T05:15:52.385Z,35.90
2022-10-10T05:18:54.255Z,32.50
2022-10-10T05:21:56.158Z,34.50
2022-10-10T05:25:00.051Z,32.50
2022-10-10T05:28:01.866Z,33.90
2022-10-10T05:31:05.355Z,36.80
2022-10-10T05:34:07.449Z,33.90
2022-10-10T05:37:09.731Z,30.60
2022-10-10T05:40:11.810Z,31.90
2022-10-10T05:43:13.621Z,27.50
2022-10-10T05:46:15.630Z,26.70
2022-10-10T05:49:17.469Z,26.20
2022-10-10T05:52:19.423Z,24.80
2022-10-10T05:55:21.218Z,25.80
2022-10-10T05:58:22.964Z,26.60
2022-10-10T06:01:24.705Z,24.10
2022-10-10T06:04:26.440Z,24.40
2022-10-10T06:07:40.525Z,22.50
2022-10-10T06:10:47.821Z,26.00
2022-10-10T06:13:54.261Z,26.10
2022-10-10T06:16:56.101Z,21.50
2022-10-10T06:19:58.006Z,22.40
2022-10-10T06:22:59.801Z,23.20
2022-10-10T06:26:01.965Z,22.60
2022-10-10T06:29:04.179Z,27.00
2022-10-10T06:32:06.059Z,19.80
2022-10-10T06:35:08.275Z,21.70
2022-10-10T06:38:10.644Z,22.80
2022-10-10T06:41:13.207Z,21.80
2022-10-10T06:44:17.579Z,20.30
2022-10-10T06:47:19.530Z,20.00
2022-10-10T06:50:22.229Z,20.20
2022-10-10T06:53:45.032Z,21.00
2022-10-10T06:57:01.815Z,20.50
2022-10-10T07:00:05.869Z,23.80
2022-10-10T07:03:11.395Z,21.10
2022-10-10T07:06:13.403Z,20.10
2022-10-10T07:09:15.846Z,22.00
2022-10-10T07:12:17.676Z,22.60
2022-10-10T07:15:19.467Z,21.80
2022-10-10T07:18:22.014Z,22.20
2022-10-10T07:21:23.854Z,21.70
2022-10-10T07:24:25.780Z,21.30
2022-10-10T07:27:27.590Z,19.20
2022-10-10T07:30:29.354Z,21.60
2022-10-10T07:33:33.009Z,19.70
2022-10-10T07:36:34.994Z,21.60
2022-10-10T07:39:37.035Z,21.20
2022-10-10T07:42:38.892Z,22.20
2022-10-10T07:45:40.774Z,19.00
2022-10-10T07:48:42.667Z,17.00
2022-10-10T07:51:44.891Z,19.20
2022-10-10T07:54:46.699Z,21.80
2022-10-10T07:57:53.107Z,17.10
2022-10-10T08:01:03.204Z,15.90
2022-10-10T08:04:04.974Z,17.30
2022-10-10T08:07:07.037Z,18.20
2022-10-10T08:10:10.143Z,18.00
2022-10-10T08:13:11.942Z,18.60
2022-10-10T08:16:14.030Z,15.00
2022-10-10T08:19:16.088Z,18.10
2022-10-10T08:22:17.788Z,14.40
2022-10-10T08:25:19.474Z,15.80
2022-10-10T08:28:21.430Z,15.90
2022-10-10T08:31:23.174Z,13.90
2022-10-10T08:34:25.067Z,15.90
2022-10-10T08:37:31.646Z,15.90
2022-10-10T08:40:47.444Z,14.40
2022-10-10T08:43:53.033Z,12.50
2022-10-10T08:47:05.841Z,13.20
2022-10-10T08:50:29.857Z,13.30
2022-10-10T08:53:46.823Z,10.10
2022-10-10T08:56:49.934Z,12.70
2022-10-10T08:59:55.283Z,8.10
2022-10-10T09:02:59.293Z,10.40
2022-10-10T09:06:17.642Z,10.30
2022-10-10T09:09:44.688Z,12.30
2022-10-10T09:13:08.822Z,8.30
2022-10-10T09:16:23.134Z,9.30
2022-10-10T09:19:40.014Z,9.30
2022-10-10T09:22:52.785Z,9.40
2022-10-10T09:26:11.108Z,10.30
2022-10-10T09:29:33.535Z,9.80
2022-10-10T09:32:42.291Z,8.80
2022-10-10T09:35:44.799Z,8.70
2022-10-10T09:38:59.575Z,12.30
2022-10-10T09:42:04.613Z,11.80
2022-10-10T09:45:17.451Z,10.90
2022-10-10T09:48:20.695Z,12.00
2022-10-10T09:51:22.421Z,9.60
2022-10-10T09:54:25.205Z,13.00
2022-10-10T09:57:31.884Z,11.40
2022-10-10T10:00:36.096Z,8.50
2022-10-10T10:03:38.123Z,13.10
2022-10-10T10:06:44.227Z,10.70
2022-10-10T10:09:57.580Z,10.10
2022-10-10T10:12:59.362Z,10.00
2022-10-10T10:16:10.022Z,7.70
2022-10-10T10:19:31.352Z,9.70
2022-10-10T10:22:47.129Z,8.60
2022-10-10T10:25:59.061Z,11.50
2022-10-10T10:29:01.666Z,11.30
2022-10-10T10:32:32.078Z,12.60
2022-10-10T10:35:47.818Z,6.40
2022-10-10T10:39:35.932Z,7.90
2022-10-10T10:42:55.025Z,7.30
2022-10-10T10:46:08.169Z,9.40
2022-10-10T10:49:21.847Z,8.50
2022-10-10T10:52:54.685Z,7.30
2022-10-10T10:56:05.926Z,11.00
2022-10-10T10:59:42.549Z,4.00
2022-10-10T11:03:38.491Z,9.90
2022-10-10T11:07:17.090Z,11.90
2022-10-10T11:10:22.927Z,10.70
2022-10-10T11:13:27.845Z,6.90
2022-10-10T11:16:50.582Z,9.50
2022-10-10T11:20:03.691Z,10.10
2022-10-10T11:23:28.181Z,9.20
2022-10-10T11:26:38.337Z,9.00
2022-10-10T11:30:00.275Z,12.10
2022-10-10T11:33:15.674Z,7.90
2022-10-10T11:36:23.130Z,8.50
2022-10-10T11:39:31.983Z,11.00
2022-10-10T11:42:38.771Z,11.10
2022-10-10T11:45:53.657Z,11.70
2022-10-10T11:49:04.823Z,9.20
2022-10-10T11:52:34.748Z,9.80
2022-10-10T11:55:41.751Z,13.10
2022-10-10T11:58:50.925Z,9.90
2022-10-10T12:01:56.269Z,7.90
2022-10-10T12:04:58.530Z,10.40
2022-10-10T12:08:07.727Z,12.90
2022-10-10T12:11:20.058Z,11.10
2022-10-10T12:14:23.230Z,11.50
2022-10-10T12:17:33.702Z,12.20
2022-10-10T12:20:36.305Z,9.20
2022-10-10T12:23:38.444Z,12.10
2022-10-10T12:26:52.507Z,9.50
2022-10-10T12:29:57.318Z,11.80
2022-10-10T12:32:59.532Z,13.70
2022-10-10T12:36:20.030Z,10.50
2022-10-10T12:39:21.713Z,10.40
2022-10-10T12:42:51.127Z,10.80
2022-10-10T12:46:16.306Z,12.20
2022-10-10T12:49:21.074Z,12.20
2022-10-10T12:52:35.889Z,8.90
2022-10-10T12:55:43.822Z,16.00
2022-10-10T12:58:47.935Z,11.10
2022-10-10T13:01:53.645Z,12.30
2022-10-10T13:04:59.098Z,9.90
2022-10-10T13:08:04.521Z,11.90
2022-10-10T13:11:12.188Z,10.80
2022-10-10T13:14:13.905Z,12.70
2022-10-10T13:17:26.693Z,14.30
2022-10-10T13:20:36.193Z,12.80
2022-10-10T13:23:42.085Z,11.90
2022-10-10T13:26:50.029Z,12.60
2022-10-10T13:29:53.310Z,13.10
2022-10-10T13:32:56.214Z,10.50
2022-10-10T13:36:06.902Z,11.80
2022-10-10T13:39:15.196Z,10.70
2022-10-10T13:42:37.553Z,11.70
2022-10-10T13:45:47.736Z,10.60
2022-10-10T13:48:52.797Z,11.40
2022-10-10T13:52:21.808Z,15.00
2022-10-10T13:55:26.430Z,12.40
2022-10-10T13:58:31.466Z,10.60
2022-10-10T14:01:41.509Z,13.20
2022-10-10T14:04:51.527Z,11.40
2022-10-10T14:07:53.980Z,10.90
2022-10-10T14:11:07.171Z,8.90
2022-10-10T14:14:17.104Z,14.30
2022-10-10T14:17:19.278Z,12.60
2022-10-10T14:20:20.973Z,12.80
2022-10-10T14:23:23.224Z,14.30
2022-10-10T14:26:24.873Z,15.50
2022-10-10T14:29:26.792Z,13.80
2022-10-10T14:32:28.479Z,11.40
2022-10-10T14:35:30.346Z,14.90
2022-10-10T14:38:32.673Z,13.50
2022-10-10T14:41:34.454Z,17.80
2022-10-10T14:44:36.693Z,16.10
2022-10-10T14:47:38.407Z,16.10
2022-10-10T14:50:46.313Z,12.30
2022-10-10T14:54:11.018Z,12.10
2022-10-10T14:57:12.783Z,12.20
2022-10-10T15:00:16.641Z,11.80
2022-10-10T15:03:18.496Z,12.90
2022-10-10T15:06:20.258Z,13.20
2022-10-10T15:09:40.424Z,23.80
2022-10-10T15:12:44.536Z,161.50
2022-10-10T15:15:47.719Z,55.20
2022-10-10T15:18:54.042Z,22.50
2022-10-10T15:21:56.322Z,17.20
2022-10-10T15:24:58.304Z,13.70
2022-10-10T15:28:00.029Z,19.40
2022-10-10T15:31:01.974Z,18.60
2022-10-10T15:34:05.198Z,22.20
2022-10-10T15:37:08.265Z,22.30
2022-10-10T15:40:11.578Z,24.20
2022-10-10T15:43:16.070Z,20.10
2022-10-10T15:46:26.635Z,44.30
2022-10-10T15:49:28.463Z,41.90
2022-10-10T15:52:30.312Z,49.90
2022-10-10T15:55:31.994Z,38.70
2022-10-10T15:58:34.767Z,28.60
2022-10-10T16:01:37.141Z,29.80
2022-10-10T16:04:39.521Z,26.80
2022-10-10T16:07:47.575Z,21.40
2022-10-10T16:10:50.071Z,24.10
2022-10-10T16:13:54.088Z,23.50
2022-10-10T16:17:01.940Z,20.90
2022-10-10T16:20:04.276Z,22.50
2022-10-10T16:23:05.972Z,26.40
2022-10-10T16:26:30.807Z,29.70
2022-10-10T16:29:32.587Z,34.70
2022-10-10T16:32:39.316Z,33.80
2022-10-10T16:35:46.219Z,31.20
2022-10-10T16:38:48.632Z,28.30
2022-10-10T16:41:50.214Z,26.40
2022-10-10T16:44:51.965Z,29.40
2022-10-10T16:47:53.604Z,36.60
2022-10-10T16:50:55.323Z,37.40
2022-10-10T16:54:00.751Z,42.60
2022-10-10T16:57:02.393Z,43.70
2022-10-10T17:00:06.268Z,43.30
2022-10-10T17:03:08.243Z,37.40
2022-10-10T17:06:19.399Z,45.30
2022-10-10T17:09:22.878Z,40.10
2022-10-10T17:12:24.467Z,37.30
2022-10-10T17:15:26.401Z,59.70
2022-10-10T17:18:27.993Z,66.70
2022-10-10T17:21:30.035Z,47.90
2022-10-10T17:24:31.790Z,42.40
2022-10-10T17:27:35.172Z,56.30
2022-10-10T17:30:45.753Z,39.50
2022-10-10T17:33:53.310Z,32.50
2022-10-10T17:36:56.034Z,41.20
2022-10-10T17:39:57.910Z,44.10
2022-10-10T17:43:04.495Z,46.40
2022-10-10T17:46:32.544Z,36.80
2022-10-10T17:49:30.596Z,31.30
2022-10-10T17:55:41.166Z,40.70
2022-10-10T17:58:44.799Z,41.00
2022-10-10T18:01:46.525Z,36.00
2022-10-10T18:04:48.402Z,35.30
2022-10-10T18:07:50.289Z,51.60
2022-10-10T18:10:52.118Z,115.80
2022-10-10T18:13:59.899Z,58.40
2022-10-10T18:17:01.614Z,39.90
2022-10-10T18:20:04.086Z,37.70
2022-10-10T18:23:10.906Z,44.30
2022-10-10T18:26:19.378Z,42.00
2022-10-10T18:29:23.354Z,67.20
2022-10-10T18:32:35.837Z,58.90
2022-10-10T18:35:42.010Z,55.80
2022-10-10T18:38:43.875Z,54.10
2022-10-10T18:41:46.448Z,51.80
2022-10-10T18:44:48.127Z,43.10
2022-10-10T18:47:49.938Z,47.10
2022-10-10T18:50:51.599Z,44.80
2022-10-10T18:53:57.245Z,42.50
2022-10-10T18:56:58.949Z,59.10
2022-10-10T19:00:00.606Z,61.80
2022-10-10T19:06:06.541Z,65.50
2022-10-10T19:09:10.815Z,61.30
2022-10-10T19:12:12.552Z,56.30
2022-10-10T19:15:14.910Z,63.30
2022-10-10T19:18:16.845Z,57.90
2022-10-10T19:21:18.527Z,54.80
2022-10-10T19:27:24.135Z,50.10
2022-10-10T19:33:29.249Z,54.40
2022-10-10T19:36:30.892Z,51.80
2022-10-10T19:42:34.016Z,47.70
2022-10-10T19:45:52.839Z,43.30
2022-10-10T19:48:58.551Z,54.20
2022-10-10T19:52:00.184Z,90.60
2022-10-10T19:58:03.488Z,60.10
2022-10-10T20:04:10.605Z,86.60
2022-10-10T20:07:12.412Z,83.30
2022-10-10T20:13:16.171Z,64.50
2022-10-10T20:16:18.080Z,72.80
2022-10-10T20:19:19.854Z,64.30
2022-10-10T20:25:23.189Z,52.90
2022-10-10T20:28:25.047Z,46.30
2022-10-10T20:31:30.110Z,52.00
2022-10-10T20:34:31.829Z,48.70
2022-10-10T20:40:41.123Z,39.90
2022-10-10T20:43:42.922Z,45.80
2022-10-10T20:46:45.304Z,34.20
2022-10-10T20:49:46.915Z,32.20
2022-10-10T20:56:11.478Z,37.50
2022-10-10T20:59:14.330Z,34.30
2022-10-10T21:02:19.234Z,36.40
2022-10-10T21:05:21.418Z,39.80
2022-10-10T21:11:24.739Z,39.50
2022-10-10T21:17:29.458Z,36.00
2022-10-10T21:20:31.196Z,44.50
2022-10-10T21:26:36.952Z,41.90
2022-10-10T21:29:39.460Z,43.70
2022-10-10T21:32:41.155Z,48.70
2022-10-10T21:38:45.183Z,38.80
2022-10-10T21:41:46.857Z,37.50
2022-10-10T21:47:50.193Z,34.90
2022-10-10T21:50:57.344Z,34.60
2022-10-10T21:53:59.036Z,37.20
2022-10-10T22:00:02.873Z,36.50
2022-10-10T22:03:04.685Z,38.70
2022-10-10T22:09:10.107Z,39.80
2022-10-10T22:15:14.055Z,41.60
2022-10-10T22:18:16.015Z,35.40
2022-10-10T22:21:17.701Z,40.00
2022-10-10T22:24:19.694Z,39.30
2022-10-10T22:27:21.658Z,38.50
2022-10-10T22:30:23.388Z,36.90
2022-10-10T22:36:26.745Z,46.80
2022-10-10T22:39:28.668Z,46.70
2022-10-10T22:42:30.518Z,38.00
2022-10-10T22:45:32.196Z,37.10
2022-10-10T22:48:33.910Z,34.90
2022-10-10T22:54:37.130Z,29.90
2022-10-10T22:57:40.017Z,35.80
2022-10-10T23:00:41.677Z,30.60
2022-10-10T23:03:43.650Z,31.90
2022-10-10T23:07:05.286Z,33.60
2022-10-10T23:10:20.892Z,29.90
2022-10-10T23:13:22.978Z,39.90
2022-10-10T23:19:26.367Z,33.40
2022-10-10T23:22:28.064Z,28.30
2022-10-10T23:28:31.397Z,28.80
2022-10-10T23:31:33.461Z,32.30
2022-10-10T23:34:35.284Z,33.70
2022-10-10T23:37:37.147Z,32.60
2022-10-10T23:40:38.859Z,32.20
2022-10-10T23:43:41.184Z,29.70
2022-10-10T23:46:42.860Z,31.10
2022-10-10T23:52:46.068Z,30.80
2022-10-10T23:55:48.256Z,35.30
2022-10-10T23:58:50.453Z,33.50
